Time;durP1;ratioP1;P1;durP2;ratioP2;P2;SDS_P1;SDS_P2;PMS_P1;PMS_P2;Temp;Humidity;BMP_temperature;BMP_pressure;BME280_temperature;BME280_humidity;BME280_pressure;Samples;Min_cycle;Max_cycle;Signal;HPM_P1;HPM_P2
2022/03/04 00:00:33;;;;;;;14.50;8.30;;;-1.70;99.90;;;;;;4405090;32;20072;-62
2022/03/04 00:02:59;;;;;;;13.02;7.45;;;-1.70;99.90;;;;;;4406228;32;20079;-62
2022/03/04 00:05:25;;;;;;;16.62;8.63;;;-1.80;99.90;;;;;;4404887;32;20172;-62
2022/03/04 00:07:52;;;;;;;12.77;8.70;;;-1.80;99.90;;;;;;4405704;32;20113;-62
2022/03/04 00:10:18;;;;;;;16.27;8.80;;;-1.80;99.90;;;;;;4405222;32;20084;-62
2022/03/04 00:12:45;;;;;;;13.70;8.90;;;-1.80;99.90;;;;;;4392206;32;20234;-62
2022/03/04 00:15:11;;;;;;;16.77;9.70;;;-1.90;99.90;;;;;;4405724;32;20506;-61
2022/03/04 00:17:37;;;;;;;14.00;8.80;;;-1.90;99.90;;;;;;4392347;32;20092;-60
2022/03/04 00:20:04;;;;;;;14.80;9.55;;;-1.70;99.90;;;;;;4404779;32;20088;-61
2022/03/04 00:22:31;;;;;;;17.15;9.85;;;-1.80;99.90;;;;;;4405308;32;20083;-62
2022/03/04 00:27:37;;;;;;;14.93;9.60;;;-1.70;99.90;;;;;;3856338;37;20077;-61
2022/03/04 00:30:06;;;;;;;17.15;9.50;;;-2.10;99.90;;;;;;4404993;32;20154;-61
2022/03/04 00:32:32;;;;;;;16.95;10.52;;;-2.00;99.90;;;;;;4402825;32;20068;-62
2022/03/04 00:34:58;;;;;;;17.80;10.27;;;-2.00;99.90;;;;;;4409635;32;20158;-62
2022/03/04 00:37:25;;;;;;;17.17;10.25;;;-1.70;99.90;;;;;;4406597;32;20070;-61
2022/03/04 00:39:51;;;;;;;16.25;10.07;;;-1.70;99.90;;;;;;4402712;32;20459;-61
2022/03/04 00:42:17;;;;;;;17.52;9.18;;;-2.00;99.90;;;;;;4403267;32;20489;-62
2022/03/04 00:44:43;;;;;;;15.00;8.85;;;-2.00;99.90;;;;;;4404617;32;20155;-61
2022/03/04 00:47:10;;;;;;;15.95;9.52;;;-2.00;99.90;;;;;;4404072;32;20173;-61
2022/03/04 00:49:36;;;;;;;15.77;9.90;;;-1.90;99.90;;;;;;4402664;32;20083;-62
2022/03/04 00:52:03;;;;;;;17.62;9.85;;;-1.90;99.90;;;;;;4390801;32;20073;-62
2022/03/04 00:54:29;;;;;;;17.45;9.57;;;-1.80;99.90;;;;;;4404529;32;20081;-62
2022/03/04 00:56:56;;;;;;;15.25;9.27;;;-2.00;99.90;;;;;;4390108;32;20073;-62
2022/03/04 00:59:22;;;;;;;20.02;11.43;;;-1.90;99.90;;;;;;4404361;32;20157;-61
2022/03/04 01:01:49;;;;;;;17.85;10.30;;;-1.90;99.90;;;;;;4403964;32;20545;-62
2022/03/04 01:04:15;;;;;;;17.30;10.55;;;-1.90;99.90;;;;;;4405015;32;20085;-62
2022/03/04 01:06:41;;;;;;;19.33;10.18;;;-2.00;99.90;;;;;;4404730;32;20086;-62
2022/03/04 01:09:08;;;;;;;17.17;9.90;;;-2.00;99.90;;;;;;4404272;32;20076;-62
2022/03/04 01:11:34;;;;;;;17.65;9.93;;;-1.80;99.90;;;;;;4404277;32;20183;-61
2022/03/04 01:14:01;;;;;;;15.90;9.52;;;-1.90;99.90;;;;;;4402588;32;20169;-62
2022/03/04 01:16:27;;;;;;;18.45;9.90;;;-1.90;99.90;;;;;;4403820;32;20087;-62
2022/03/04 01:18:53;;;;;;;16.12;9.60;;;-2.00;99.90;;;;;;4402884;32;20581;-62
2022/03/04 01:21:20;;;;;;;16.05;9.13;;;-2.00;99.90;;;;;;4403777;32;20100;-62
2022/03/04 01:23:46;;;;;;;16.15;9.57;;;-1.80;99.90;;;;;;4402467;32;20082;-61
2022/03/04 01:26:12;;;;;;;15.95;9.10;;;-1.80;99.90;;;;;;4403248;32;20536;-62
2022/03/04 01:28:39;;;;;;;13.52;8.40;;;-1.80;99.90;;;;;;4403798;32;20089;-62
2022/03/04 01:31:05;;;;;;;18.23;9.88;;;-1.90;99.90;;;;;;4390393;32;20081;-62
2022/03/04 01:33:31;;;;;;;18.58;10.02;;;-1.80;99.90;;;;;;4402929;32;20133;-61
2022/03/04 01:35:58;;;;;;;17.20;9.05;;;-1.80;99.90;;;;;;4403737;32;20082;-62
2022/03/04 01:38:24;;;;;;;16.40;9.00;;;-1.70;99.90;;;;;;4394526;32;20111;-62
2022/03/04 01:40:50;;;;;;;15.00;8.48;;;-1.80;99.90;;;;;;4392279;32;20164;-61
2022/03/04 01:43:17;;;;;;;14.35;8.07;;;-1.70;99.90;;;;;;4393748;32;20588;-61
2022/03/04 01:45:43;;;;;;;13.48;8.23;;;-1.80;99.90;;;;;;4393568;32;20066;-62
2022/03/04 01:48:09;;;;;;;16.70;9.63;;;-1.90;99.90;;;;;;4391877;32;20151;-62
2022/03/04 01:50:36;;;;;;;14.75;8.30;;;-1.80;99.90;;;;;;4393839;32;20077;-62
2022/03/04 01:53:02;;;;;;;18.05;9.38;;;-1.90;99.90;;;;;;4391783;32;20081;-61
2022/03/04 01:55:29;;;;;;;16.67;8.48;;;-1.90;99.90;;;;;;4379423;32;20093;-62
2022/03/04 01:57:55;;;;;;;14.80;8.20;;;-1.90;99.90;;;;;;4393381;32;20538;-61
2022/03/04 02:00:22;;;;;;;16.48;8.68;;;-2.00;99.90;;;;;;4391669;32;20074;-61
2022/03/04 02:02:48;;;;;;;17.80;8.40;;;-2.00;99.90;;;;;;4394233;32;20508;-62
2022/03/04 02:05:17;;;;;;;15.38;8.60;;;-2.00;99.90;;;;;;4391940;32;20058;-62
2022/03/04 02:07:44;;;;;;;16.42;8.82;;;-2.00;99.90;;;;;;4379678;32;20158;-62
2022/03/04 02:10:11;;;;;;;19.60;9.85;;;-1.90;99.90;;;;;;4391862;32;20077;-62
2022/03/04 02:12:38;;;;;;;19.75;10.88;;;-2.00;99.90;;;;;;4392194;32;20076;-62
2022/03/04 02:15:06;;;;;;;26.15;13.68;;;-2.00;99.90;;;;;;4392487;32;20085;-60
2022/03/04 02:17:34;;;;;;;32.45;15.45;;;-2.20;99.90;;;;;;4392287;32;20116;-61
2022/03/04 02:20:01;;;;;;;30.25;15.15;;;-2.20;99.90;;;;;;4392203;32;20497;-62
2022/03/04 02:22:27;;;;;;;28.30;16.05;;;-2.10;99.90;;;;;;4393083;32;20097;-62
2022/03/04 02:24:54;;;;;;;33.40;17.27;;;-2.20;99.90;;;;;;4393179;32;20136;-61
2022/03/04 02:27:20;;;;;;;35.60;16.90;;;-2.10;99.90;;;;;;4393406;32;20105;-61
2022/03/04 02:29:46;;;;;;;41.75;18.92;;;-2.20;99.90;;;;;;4395277;32;20160;-62
2022/03/04 02:32:13;;;;;;;36.22;18.25;;;-2.10;99.90;;;;;;4383008;32;20145;-61
2022/03/04 02:34:39;;;;;;;32.10;17.40;;;-2.00;99.90;;;;;;4408226;32;20166;-61
2022/03/04 02:37:06;;;;;;;31.85;18.48;;;-2.20;99.90;;;;;;4410383;32;20058;-62
2022/03/04 02:39:32;;;;;;;40.45;18.02;;;-2.20;99.90;;;;;;4381573;32;20153;-62
2022/03/04 02:41:58;;;;;;;35.42;19.23;;;-2.20;99.90;;;;;;4401014;32;20088;-61
2022/03/04 02:44:25;;;;;;;35.08;19.42;;;-2.30;99.90;;;;;;4393554;32;20150;-62
2022/03/04 02:46:51;;;;;;;40.88;21.02;;;-2.30;99.90;;;;;;4393456;32;20084;-74
2022/03/04 02:49:18;;;;;;;40.67;21.60;;;-2.50;99.90;;;;;;4393245;32;20557;-61
2022/03/04 02:51:44;;;;;;;44.85;22.90;;;-2.60;99.90;;;;;;4391893;32;20077;-61
2022/03/04 02:54:10;;;;;;;42.17;22.92;;;-2.60;99.90;;;;;;4392526;32;20085;-62
2022/03/04 02:56:36;;;;;;;50.83;26.70;;;-2.70;99.90;;;;;;4391437;32;20085;-63
2022/03/04 02:59:03;;;;;;;50.28;26.85;;;-2.70;99.90;;;;;;4395755;32;20097;-62
2022/03/04 03:01:29;;;;;;;54.60;29.98;;;-2.70;99.90;;;;;;4391725;32;20181;-62
2022/03/04 03:03:56;;;;;;;55.55;29.02;;;-2.80;99.90;;;;;;4378562;32;20085;-61
2022/03/04 03:06:22;;;;;;;55.20;31.85;;;-2.70;99.90;;;;;;4378627;32;20074;-62
2022/03/04 03:08:48;;;;;;;56.83;31.62;;;-2.70;99.90;;;;;;4392351;32;20085;-61
2022/03/04 03:11:15;;;;;;;63.05;34.63;;;-2.70;99.90;;;;;;4392545;32;20069;-62
2022/03/04 03:13:41;;;;;;;61.13;32.40;;;-2.80;99.90;;;;;;4392032;32;20080;-62
2022/03/04 03:16:08;;;;;;;65.37;34.88;;;-2.80;99.90;;;;;;4390622;32;20161;-61
2022/03/04 03:18:34;;;;;;;61.60;33.42;;;-3.00;99.90;;;;;;4390611;32;20154;-61
2022/03/04 03:21:00;;;;;;;51.67;28.38;;;-3.00;99.90;;;;;;4392360;32;20089;-62
2022/03/04 03:23:27;;;;;;;49.00;26.20;;;-3.10;99.90;;;;;;4390507;32;20100;-61
2022/03/04 03:25:53;;;;;;;35.28;20.15;;;-3.20;99.90;;;;;;4391809;32;20097;-62
2022/03/04 03:28:19;;;;;;;39.15;21.15;;;-3.20;99.90;;;;;;4392420;32;20531;-62
2022/03/04 03:30:46;;;;;;;34.42;17.55;;;-3.10;99.90;;;;;;4390993;32;20062;-62
2022/03/04 03:33:12;;;;;;;31.85;16.20;;;-3.00;99.90;;;;;;4390496;32;20086;-62
2022/03/04 03:35:38;;;;;;;29.73;14.85;;;-3.10;99.90;;;;;;4392264;32;20500;-61
2022/03/04 03:38:04;;;;;;;34.38;14.98;;;-3.10;99.90;;;;;;4391976;32;20083;-61
2022/03/04 03:40:31;;;;;;;33.72;14.93;;;-3.20;99.90;;;;;;4390582;32;20077;-61
2022/03/04 03:42:57;;;;;;;35.60;14.87;;;-3.20;99.90;;;;;;4392268;32;20093;-61
2022/03/04 03:45:23;;;;;;;31.12;14.40;;;-3.20;99.90;;;;;;4389936;32;20518;-60
2022/03/04 03:47:50;;;;;;;32.63;14.57;;;-3.40;99.90;;;;;;4377696;32;20144;-62
2022/03/04 03:50:17;;;;;;;28.10;11.82;;;-3.20;99.90;;;;;;4391713;32;20151;-61
2022/03/04 03:52:43;;;;;;;24.02;10.77;;;-3.60;99.90;;;;;;4391061;32;20086;-62
2022/03/04 03:55:10;;;;;;;19.08;9.55;;;-3.50;99.90;;;;;;4391910;32;20081;-62
2022/03/04 03:57:36;;;;;;;17.85;8.95;;;-3.60;99.90;;;;;;4390399;32;20095;-62
2022/03/04 04:00:05;;;;;;;17.70;8.35;;;-3.60;99.90;;;;;;4391464;32;20086;-61
2022/03/04 04:02:31;;;;;;;17.05;8.75;;;-3.60;99.90;;;;;;4391801;32;20073;-61
2022/03/04 04:04:57;;;;;;;20.05;9.20;;;-3.70;99.90;;;;;;4391517;32;20441;-62
2022/03/04 04:07:24;;;;;;;19.80;10.07;;;-3.60;99.90;;;;;;4391548;32;20093;-61
2022/03/04 04:09:50;;;;;;;20.80;10.02;;;-3.60;99.90;;;;;;4391808;32;20089;-61
2022/03/04 04:12:16;;;;;;;14.43;8.02;;;-3.80;99.90;;;;;;4391776;32;20153;-61
2022/03/04 04:14:42;;;;;;;20.17;9.70;;;-3.80;99.90;;;;;;4391418;32;20077;-62
2022/03/04 04:17:09;;;;;;;25.23;11.80;;;-3.60;99.90;;;;;;4391363;32;20156;-61
2022/03/04 04:19:35;;;;;;;18.67;10.90;;;-3.60;99.90;;;;;;4391263;32;20153;-62
2022/03/04 04:22:01;;;;;;;26.73;13.52;;;-3.70;99.90;;;;;;4390190;32;20074;-62
2022/03/04 04:24:28;;;;;;;21.83;10.85;;;-3.50;99.90;;;;;;4391748;32;20169;-61
2022/03/04 04:26:54;;;;;;;36.80;16.85;;;-3.50;99.90;;;;;;4391019;32;20069;-61
2022/03/04 04:29:20;;;;;;;35.15;16.90;;;-3.50;99.90;;;;;;4391088;32;20519;-62
2022/03/04 04:31:46;;;;;;;38.20;18.87;;;-3.30;99.90;;;;;;4391822;32;20084;-62
2022/03/04 04:34:13;;;;;;;37.30;17.92;;;-3.40;99.90;;;;;;4390041;32;20063;-63
2022/03/04 04:36:39;;;;;;;44.88;20.95;;;-3.20;99.90;;;;;;4391461;32;20576;-61
2022/03/04 04:39:05;;;;;;;35.92;19.25;;;-3.30;99.90;;;;;;4391879;32;20616;-62
2022/03/04 04:41:32;;;;;;;35.55;18.33;;;-3.40;99.90;;;;;;4391601;32;20081;-61
2022/03/04 04:43:58;;;;;;;32.80;15.35;;;-3.40;99.90;;;;;;4389948;32;20445;-61
2022/03/04 04:46:24;;;;;;;39.83;17.98;;;-3.60;99.90;;;;;;4391021;32;20073;-62
2022/03/04 04:48:51;;;;;;;34.53;16.02;;;-3.40;99.90;;;;;;4390952;32;20508;-61
2022/03/04 04:51:17;;;;;;;31.25;16.62;;;-3.40;99.90;;;;;;4391677;32;20093;-61
2022/03/04 04:53:44;;;;;;;34.92;17.52;;;-3.50;99.90;;;;;;4391296;32;20166;-62
2022/03/04 04:56:10;;;;;;;31.67;15.88;;;-3.50;99.90;;;;;;4378168;32;20480;-62
2022/03/04 04:58:36;;;;;;;37.15;18.62;;;-3.30;99.90;;;;;;4391243;32;20071;-62
2022/03/04 05:01:03;;;;;;;49.30;26.98;;;-3.50;99.90;;;;;;4391169;32;20178;-62
2022/03/04 05:03:29;;;;;;;47.58;27.77;;;-3.70;99.90;;;;;;4389326;32;20078;-61
2022/03/04 05:05:57;;;;;;;46.05;25.48;;;-3.90;99.90;;;;;;4377522;32;20077;-62
2022/03/04 05:08:27;;;;;;;38.40;19.87;;;-3.90;99.90;;;;;;4391295;32;20081;-63
2022/03/04 05:10:54;;;;;;;38.78;21.60;;;-3.80;99.90;;;;;;4389626;32;20082;-62
2022/03/04 05:13:20;;;;;;;36.22;17.83;;;-3.80;99.90;;;;;;4392750;32;20078;-62
2022/03/04 05:15:46;;;;;;;31.92;16.00;;;-3.70;99.90;;;;;;4392577;32;20163;-60
2022/03/04 05:18:13;;;;;;;38.50;20.02;;;-3.50;99.90;;;;;;4394586;32;20070;-62
2022/03/04 05:20:39;;;;;;;27.55;15.15;;;-3.70;99.90;;;;;;4398517;32;20144;-62
2022/03/04 05:23:05;;;;;;;28.10;15.55;;;-3.40;99.90;;;;;;4399757;32;20173;-62
2022/03/04 05:25:32;;;;;;;32.70;18.60;;;-3.20;99.90;;;;;;4393347;32;20082;-61
2022/03/04 05:27:58;;;;;;;27.20;15.82;;;-3.50;99.90;;;;;;4394116;32;20077;-62
2022/03/04 05:30:25;;;;;;;21.85;12.52;;;-3.60;99.90;;;;;;4393697;32;20080;-61
2022/03/04 05:32:51;;;;;;;24.83;12.10;;;-3.20;99.90;;;;;;4379706;32;20109;-63
2022/03/04 05:35:17;;;;;;;23.50;14.10;;;-3.30;99.90;;;;;;4393789;32;20149;-61
2022/03/04 05:37:44;;;;;;;3.70;2.10;;;-3.40;99.90;;;;;;4394054;32;20081;-61
2022/03/04 05:40:10;;;;;;;4.80;2.90;;;-3.40;99.90;;;;;;4392657;32;20161;-61
2022/03/04 05:42:37;;;;;;;16.83;8.60;;;-3.70;99.90;;;;;;4392187;32;20146;-60
2022/03/04 05:45:05;;;;;;;18.48;9.40;;;-3.30;99.90;;;;;;4381264;32;20081;-60
2022/03/04 05:47:31;;;;;;;14.90;8.35;;;-3.50;99.90;;;;;;4393784;32;20174;-60
2022/03/04 05:49:58;;;;;;;15.82;8.15;;;-3.40;99.90;;;;;;4394276;32;20156;-60
2022/03/04 05:52:24;;;;;;;7.85;3.92;;;-3.40;99.90;;;;;;4392318;32;20146;-60
2022/03/04 05:54:50;;;;;;;7.65;4.12;;;-3.10;99.90;;;;;;4379539;32;20562;-60
2022/03/04 05:57:17;;;;;;;11.27;6.62;;;-3.30;99.90;;;;;;4393602;32;20093;-61
2022/03/04 05:59:43;;;;;;;16.25;9.23;;;-3.50;99.90;;;;;;4391489;32;20062;-61
2022/03/04 06:02:10;;;;;;;8.23;4.80;;;-3.50;99.90;;;;;;4379413;32;20142;-60
2022/03/04 06:04:37;;;;;;;9.13;5.03;;;-3.20;99.90;;;;;;4379248;32;20089;-61
2022/03/04 06:07:04;;;;;;;15.63;8.57;;;-3.30;99.90;;;;;;4379208;32;20166;-61
2022/03/04 06:09:31;;;;;;;16.30;9.65;;;-3.20;99.90;;;;;;4379550;32;20586;-61
2022/03/04 06:11:57;;;;;;;13.52;8.60;;;-3.40;99.90;;;;;;4393101;32;20096;-61
2022/03/04 06:14:24;;;;;;;14.43;9.38;;;-3.10;99.90;;;;;;4391182;32;20092;-60
2022/03/04 06:16:50;;;;;;;13.40;8.35;;;-3.10;99.90;;;;;;4391861;32;20078;-61
2022/03/04 06:19:17;;;;;;;16.40;8.85;;;-3.20;99.90;;;;;;4392897;32;20070;-60
2022/03/04 06:21:43;;;;;;;14.68;8.15;;;-2.90;99.90;;;;;;4391244;32;20511;-60
2022/03/04 06:24:10;;;;;;;15.35;8.57;;;-2.80;99.90;;;;;;4392529;32;20077;-61
2022/03/04 06:26:36;;;;;;;13.05;8.43;;;-2.70;99.90;;;;;;4391950;32;20163;-61
2022/03/04 06:29:02;;;;;;;12.45;7.43;;;-3.00;99.90;;;;;;4391641;32;20161;-60
2022/03/04 06:31:29;;;;;;;14.73;8.57;;;-3.00;99.90;;;;;;4391305;32;20158;-61
2022/03/04 06:33:55;;;;;;;17.90;11.30;;;-2.70;99.90;;;;;;4366111;32;20085;-61
2022/03/04 06:36:21;;;;;;;19.10;11.10;;;-2.40;99.90;;;;;;4378511;32;20587;-61
2022/03/04 06:38:48;;;;;;;18.08;10.80;;;-2.30;99.90;;;;;;4392682;32;20077;-62
2022/03/04 06:41:15;;;;;;;16.55;9.85;;;-2.60;99.90;;;;;;4391228;32;20078;-60
2022/03/04 06:43:42;;;;;;;13.75;9.18;;;-2.20;99.90;;;;;;4379340;32;20186;-60
2022/03/04 06:46:09;;;;;;;18.58;11.63;;;-2.20;99.90;;;;;;4378808;32;20085;-60
2022/03/04 06:48:36;;;;;;;21.62;14.05;;;-2.60;99.90;;;;;;4379194;32;20089;-60
2022/03/04 06:51:03;;;;;;;20.05;13.15;;;-2.80;99.90;;;;;;4378877;32;20197;-60
2022/03/04 06:53:29;;;;;;;19.55;11.02;;;-2.70;99.90;;;;;;4391151;32;20151;-60
2022/03/04 06:55:56;;;;;;;16.33;7.60;;;-2.80;99.90;;;;;;4377761;32;20484;-61
2022/03/04 06:58:22;;;;;;;12.02;7.30;;;-2.80;99.90;;;;;;4377954;32;20093;-60
2022/03/04 07:00:49;;;;;;;12.15;7.50;;;-2.70;99.90;;;;;;4391992;32;20172;-60
2022/03/04 07:03:16;;;;;;;11.60;7.10;;;-2.90;99.90;;;;;;4391962;32;20492;-60
2022/03/04 07:05:46;;;;;;;13.50;8.50;;;-2.60;99.90;;;;;;4390473;32;20085;-61
2022/03/04 07:08:13;;;;;;;16.15;9.05;;;-2.60;99.90;;;;;;4390685;32;20086;-61
2022/03/04 07:10:43;;;;;;;13.40;9.00;;;-2.80;99.90;;;;;;4392297;32;20093;-60
2022/03/04 07:13:11;;;;;;;13.45;8.57;;;-2.70;99.90;;;;;;4390629;32;20149;-60
2022/03/04 07:15:38;;;;;;;14.93;7.90;;;-2.70;99.90;;;;;;4378030;32;20078;-60
2022/03/04 07:18:05;;;;;;;12.65;6.93;;;-2.60;99.90;;;;;;4377996;32;20534;-60
2022/03/04 07:20:32;;;;;;;12.50;7.93;;;-2.40;99.90;;;;;;4390453;32;20085;-61
2022/03/04 07:22:58;;;;;;;13.77;8.07;;;-2.30;99.90;;;;;;4390439;32;20064;-62
2022/03/04 07:25:25;;;;;;;12.43;7.43;;;-2.20;99.90;;;;;;4391885;32;20082;-61
2022/03/04 07:27:51;;;;;;;12.15;6.87;;;-2.30;99.90;;;;;;4379110;32;20162;-61
2022/03/04 07:30:18;;;;;;;16.20;9.05;;;-2.20;99.90;;;;;;4392993;32;20089;-61
2022/03/04 07:32:46;;;;;;;14.07;7.62;;;-2.10;99.90;;;;;;4378659;32;20142;-64
2022/03/04 07:35:13;;;;;;;11.77;7.00;;;-1.80;99.90;;;;;;4378029;32;20104;-62
2022/03/04 07:37:41;;;;;;;11.18;6.85;;;-1.70;99.90;;;;;;4390189;32;20085;-62
2022/03/04 07:40:12;;;;;;;15.77;8.18;;;-1.70;99.90;;;;;;4390095;32;20093;-62
2022/03/04 07:42:38;;;;;;;14.25;8.30;;;-1.50;99.90;;;;;;4377355;32;20518;-62
2022/03/04 07:45:10;;;;;;;11.98;7.50;;;-1.70;99.90;;;;;;4391582;32;20522;-61
2022/03/04 07:47:39;;;;;;;15.02;9.35;;;-2.20;99.90;;;;;;4389566;32;20568;-61
2022/03/04 07:50:08;;;;;;;14.05;8.25;;;-2.00;99.90;;;;;;4391029;32;20550;-61
2022/03/04 07:52:35;;;;;;;17.90;9.02;;;-1.90;99.90;;;;;;4390149;32;20069;-62
2022/03/04 07:55:03;;;;;;;13.88;7.37;;;-1.80;99.90;;;;;;4391308;32;20195;-62
2022/03/04 07:57:30;;;;;;;11.38;7.53;;;-2.10;99.90;;;;;;4389482;32;20089;-62
2022/03/04 07:59:56;;;;;;;11.23;6.80;;;-2.40;99.90;;;;;;4389485;32;20077;-62
2022/03/04 08:02:23;;;;;;;12.77;6.45;;;-2.40;99.90;;;;;;4376903;32;20173;-61
2022/03/04 08:04:50;;;;;;;14.65;7.70;;;-2.10;99.90;;;;;;4393211;32;20117;-61
2022/03/04 08:07:17;;;;;;;12.98;8.02;;;-2.00;99.90;;;;;;4379411;32;20161;-61
2022/03/04 08:09:44;;;;;;;12.57;8.48;;;-2.30;99.90;;;;;;4390104;32;20077;-61
2022/03/04 08:12:11;;;;;;;13.77;8.00;;;-2.40;99.90;;;;;;4364810;32;20101;-61
2022/03/04 08:14:38;;;;;;;13.45;7.45;;;-2.30;99.90;;;;;;4390964;32;20085;-61
2022/03/04 08:17:05;;;;;;;9.70;6.97;;;-1.90;99.90;;;;;;4389842;32;20085;-62
2022/03/04 08:19:33;;;;;;;13.00;7.07;;;-2.00;99.90;;;;;;4377011;32;20253;-62
2022/03/04 08:21:59;;;;;;;11.68;7.90;;;-1.70;99.90;;;;;;4389813;32;20516;-61
2022/03/04 08:24:25;;;;;;;12.48;7.72;;;-1.80;99.90;;;;;;4391075;32;20169;-64
2022/03/04 08:26:52;;;;;;;13.02;7.95;;;-2.10;99.90;;;;;;4364628;32;20093;-61
2022/03/04 08:29:19;;;;;;;13.62;7.72;;;-1.90;99.90;;;;;;4393607;32;20070;-61
2022/03/04 08:31:45;;;;;;;13.48;8.15;;;-2.10;99.90;;;;;;4365461;32;20070;-61
2022/03/04 08:34:12;;;;;;;12.32;7.72;;;-2.20;99.90;;;;;;4391104;32;20091;-61
2022/03/04 08:36:38;;;;;;;12.90;8.32;;;-2.30;99.90;;;;;;4391590;32;20070;-62
2022/03/04 08:39:05;;;;;;;13.73;7.95;;;-1.90;99.90;;;;;;4398281;32;20096;-63
2022/03/04 08:41:34;;;;;;;13.82;7.68;;;-2.10;99.90;;;;;;4401339;32;20070;-61
2022/03/04 08:44:00;;;;;;;12.05;7.78;;;-2.00;99.90;;;;;;4398381;32;20081;-62
2022/03/04 08:46:27;;;;;;;11.65;7.05;;;-2.00;99.90;;;;;;4394326;32;20067;-62
2022/03/04 08:48:53;;;;;;;10.80;6.70;;;-2.00;99.90;;;;;;4389002;32;20138;-63
2022/03/04 08:51:25;;;;;;;10.80;6.18;;;-1.70;99.90;;;;;;4361865;32;20109;-63
2022/03/04 22:25:07;;;;;;;14.37;10.43;;;-1.30;99.90;;;;;;3858210;37;20416;-63
2022/03/04 22:27:34;;;;;;;14.65;8.95;;;-1.40;99.90;;;;;;4418646;32;20702;-63
2022/03/04 22:30:00;;;;;;;12.13;8.15;;;-1.30;99.90;;;;;;4420289;32;20084;-61
2022/03/04 22:32:27;;;;;;;12.27;7.80;;;-1.30;99.90;;;;;;4419501;32;20521;-62
2022/03/04 22:34:54;;;;;;;9.95;6.65;;;-1.40;99.90;;;;;;4418221;32;20097;-62
2022/03/04 22:37:22;;;;;;;12.02;7.97;;;-1.30;99.90;;;;;;4418230;32;20442;-61
2022/03/04 22:39:48;;;;;;;12.45;7.22;;;-1.30;99.90;;;;;;4420186;32;20111;-61
2022/03/04 22:42:15;;;;;;;12.18;8.43;;;-1.30;99.90;;;;;;4419804;32;20091;-61
2022/03/04 22:44:41;;;;;;;14.52;8.05;;;-1.40;99.90;;;;;;4418153;32;20080;-61
2022/03/04 22:47:07;;;;;;;13.07;7.80;;;-1.30;99.90;;;;;;4405534;32;20077;-62
2022/03/04 22:49:34;;;;;;;11.15;7.45;;;-1.40;99.90;;;;;;4419726;32;20077;-63
2022/03/04 22:52:00;;;;;;;11.43;6.57;;;-1.40;99.90;;;;;;4418743;32;20078;-61
2022/03/04 22:54:28;;;;;;;11.15;7.50;;;-1.40;99.90;;;;;;4420223;32;20078;-62
2022/03/04 22:56:55;;;;;;;14.23;8.45;;;-1.40;99.90;;;;;;4418092;32;20458;-61
2022/03/04 22:59:21;;;;;;;11.38;6.80;;;-1.30;99.90;;;;;;4420934;32;20083;-62
2022/03/04 23:01:47;;;;;;;13.52;7.10;;;-1.40;99.90;;;;;;4418215;32;20076;-62
2022/03/04 23:09:44;;;;;;;14.63;8.93;;;-1.40;99.90;;;;;;4419828;32;20071;-62
2022/03/04 23:12:11;;;;;;;13.43;8.30;;;-1.50;99.90;;;;;;4419113;32;20149;-61
2022/03/04 23:14:38;;;;;;;11.93;7.82;;;-1.40;99.90;;;;;;4419458;32;20496;-62
2022/03/04 23:17:04;;;;;;;13.95;8.82;;;-1.40;99.90;;;;;;4418925;32;20081;-62
2022/03/04 23:19:30;;;;;;;12.68;8.35;;;-1.50;99.90;;;;;;4419202;32;20064;-62
2022/03/04 23:21:57;;;;;;;11.95;8.10;;;-1.60;99.90;;;;;;4417965;32;20081;-63
2022/03/04 23:24:23;;;;;;;14.20;9.02;;;-1.60;99.90;;;;;;4417474;32;20516;-62
2022/03/04 23:26:54;;;;;;;12.15;8.20;;;-1.60;99.90;;;;;;4418956;32;20065;-63
2022/03/04 23:29:20;;;;;;;13.95;8.40;;;-1.60;99.90;;;;;;4417481;32;20069;-63
2022/03/04 23:31:46;;;;;;;14.50;7.55;;;-1.70;99.90;;;;;;4419255;32;20096;-61
2022/03/04 23:34:13;;;;;;;13.35;7.95;;;-1.70;99.90;;;;;;4417019;32;20503;-62
2022/03/04 23:36:39;;;;;;;13.65;8.95;;;-1.70;99.90;;;;;;4407233;32;20077;-62
2022/03/04 23:39:07;;;;;;;13.00;9.38;;;-1.70;99.90;;;;;;4407264;32;20081;-62
2022/03/04 23:41:34;;;;;;;11.55;7.43;;;-1.70;99.90;;;;;;4408489;32;20061;-62
2022/03/04 23:44:00;;;;;;;14.02;9.27;;;-1.80;99.90;;;;;;4408566;32;20066;-61
2022/03/04 23:46:26;;;;;;;14.00;7.72;;;-1.80;99.90;;;;;;4395144;32;20133;-62
2022/03/04 23:48:53;;;;;;;15.32;10.05;;;-1.90;99.90;;;;;;4407529;32;20138;-62
2022/03/04 23:51:19;;;;;;;15.73;10.13;;;-1.90;99.90;;;;;;4407061;32;20178;-62
2022/03/04 23:53:46;;;;;;;14.25;9.73;;;-2.00;99.90;;;;;;4406873;32;20249;-62
2022/03/04 23:56:12;;;;;;;16.95;9.38;;;-1.90;99.90;;;;;;4407143;32;20069;-62
2022/03/04 23:58:38;;;;;;;15.13;10.27;;;-2.00;99.90;;;;;;4408421;32;20080;-63
